Time;durP1;ratioP1;P1;durP2;ratioP2;P2;SDS_P1;SDS_P2;PMS_P1;PMS_P2;Temp;Humidity;BMP_temperature;BMP_pressure;BME280_temperature;BME280_humidity;BME280_pressure;Samples;Min_cycle;Max_cycle;Signal;HPM_P1;HPM_P2
2022/10/16 00:01:21;;;;;;;14.82;8.63;;;;;;;11.32;83.04;100562.81;5078170;28;20016;-72
2022/10/16 00:03:48;;;;;;;14.48;9.10;;;;;;;11.33;83.09;100568.97;5066900;28;20230;-72
2022/10/16 00:06:16;;;;;;;19.23;8.73;;;;;;;11.43;82.16;100562.63;5063455;28;20025;-73
2022/10/16 00:08:42;;;;;;;15.45;8.35;;;;;;;11.71;82.12;100583.88;5073274;28;20041;-71
2022/10/16 00:11:11;;;;;;;17.85;8.65;;;;;;;11.86;81.31;100579.75;5062827;28;20329;-73
2022/10/16 00:13:39;;;;;;;15.25;8.30;;;;;;;12.00;80.22;100565.13;5064941;28;20079;-70
2022/10/16 00:16:04;;;;;;;19.88;8.18;;;;;;;12.29;79.22;100586.13;5064269;28;20032;-70
2022/10/16 00:18:31;;;;;;;12.75;7.85;;;;;;;12.29;78.57;100564.88;5066835;28;20043;-70
2022/10/16 00:21:02;;;;;;;13.88;8.30;;;;;;;12.42;78.28;100582.09;5062896;28;20029;-72
2022/10/16 00:23:28;;;;;;;19.83;9.13;;;;;;;12.45;78.51;100583.63;5065369;28;20039;-73
2022/10/16 00:25:58;;;;;;;16.20;8.38;;;;;;;12.55;77.88;100576.41;5071057;28;20197;-73
2022/10/16 00:28:23;;;;;;;18.15;8.55;;;;;;;12.64;77.60;100579.97;5063472;28;20028;-72
2022/10/16 00:30:49;;;;;;;16.17;9.13;;;;;;;12.57;76.95;100571.78;5064850;28;20059;-70
2022/10/16 00:33:14;;;;;;;15.95;8.70;;;;;;;12.57;77.31;100585.06;5066705;28;20033;-70
2022/10/16 00:35:45;;;;;;;19.88;8.68;;;;;;;12.57;76.41;100590.38;5070825;28;20037;-72
2022/10/16 00:38:29;;;;;;;15.18;8.18;;;;;;;12.39;76.90;100585.06;5070357;28;20313;-72
2022/10/16 00:40:54;;;;;;;16.95;8.75;;;;;;;12.31;77.44;100589.47;5065065;28;20117;-72
2022/10/16 00:43:38;;;;;;;17.90;8.25;;;;;;;12.34;77.96;100587.34;5066622;28;20040;-72
2022/10/16 00:46:10;;;;;;;22.55;8.60;;;;;;;12.12;77.12;100566.56;5069306;28;20024;-72
2022/10/16 00:48:36;;;;;;;18.83;7.90;;;;;;;12.09;77.54;100596.06;5063458;28;20114;-72
2022/10/16 00:51:04;;;;;;;21.60;8.80;;;;;;;11.63;78.16;100544.81;5064332;28;20032;-73
2022/10/16 00:53:30;;;;;;;13.40;8.20;;;;;;;12.05;78.19;100592.06;5061589;28;20234;-72
2022/10/16 00:55:55;;;;;;;18.55;8.75;;;;;;;12.18;77.71;100607.59;5065935;28;20063;-72
2022/10/16 00:58:21;;;;;;;16.08;8.30;;;;;;;12.15;77.85;100600.78;5066546;28;20025;-70
2022/10/16 01:00:46;;;;;;;19.67;8.35;;;;;;;12.32;77.49;100613.22;5065333;28;20037;-72
2022/10/16 01:03:31;;;;;;;15.90;8.40;;;;;;;12.42;77.07;100616.63;5071391;28;20035;-72
2022/10/16 01:06:07;;;;;;;14.55;8.88;;;;;;;12.46;77.09;100619.81;5077746;28;20024;-70
2022/10/16 01:08:54;;;;;;;14.32;8.25;;;;;;;12.53;75.98;100623.56;5081942;28;20024;-70
2022/10/16 01:11:32;;;;;;;23.77;8.73;;;;;;;12.61;75.31;100623.63;5081512;28;20028;-72
2022/10/16 01:14:04;;;;;;;13.63;8.55;;;;;;;12.57;75.06;100618.78;5081758;28;20043;-70
2022/10/16 01:16:37;;;;;;;16.15;8.35;;;;;;;12.53;76.04;100633.34;5080695;28;20036;-70
2022/10/16 01:19:09;;;;;;;27.75;9.18;;;;;;;12.38;76.62;100641.00;5078255;28;20334;-70
2022/10/16 01:21:44;;;;;;;14.45;8.98;;;;;;;12.39;76.56;100634.69;5081844;28;20217;-72
2022/10/16 01:24:38;;;;;;;18.95;7.85;;;;;;;12.46;76.79;100635.75;5081889;28;20033;-73
2022/10/16 01:27:13;;;;;;;25.05;8.85;;;;;;;12.54;76.31;100635.03;5081733;28;20115;-74
2022/10/16 01:29:50;;;;;;;18.27;8.25;;;;;;;12.41;75.43;100590.22;5081142;28;20039;-73
2022/10/16 01:32:15;;;;;;;13.38;8.00;;;;;;;12.61;75.57;100644.06;5081767;28;20032;-71
2022/10/16 01:34:52;;;;;;;14.27;7.95;;;;;;;12.68;75.16;100640.63;5081788;28;20278;-73
2022/10/16 01:37:28;;;;;;;17.75;7.85;;;;;;;12.63;75.15;100634.94;5081908;28;20029;-73
2022/10/16 01:39:58;;;;;;;12.75;7.32;;;;;;;12.69;74.53;100644.13;5080017;28;20044;-71
2022/10/16 01:42:30;;;;;;;12.25;7.18;;;;;;;12.76;74.92;100639.84;5081588;28;20027;-74
2022/10/16 01:44:58;;;;;;;11.50;7.65;;;;;;;12.63;74.42;100639.41;5081658;28;20036;-73
2022/10/16 01:47:26;;;;;;;21.75;8.70;;;;;;;12.71;74.45;100642.97;5084861;28;20059;-71
2022/10/16 01:49:54;;;;;;;12.75;7.45;;;;;;;12.68;74.83;100648.59;5085030;28;20263;-74
2022/10/16 01:52:23;;;;;;;13.30;7.18;;;;;;;12.52;75.60;100631.69;5084124;28;20096;-73
2022/10/16 01:54:52;;;;;;;16.35;7.10;;;;;;;12.45;75.08;100618.16;5083844;28;20033;-73
2022/10/16 01:57:20;;;;;;;11.05;6.97;;;;;;;12.70;75.28;100654.59;5082368;28;20031;-71
2022/10/16 01:59:49;;;;;;;9.90;7.00;;;;;;;12.75;75.32;100652.31;5070750;28;20039;-73
2022/10/16 02:02:17;;;;;;;12.63;7.60;;;;;;;12.74;75.30;100653.28;5076570;28;20028;-73
2022/10/16 02:04:49;;;;;;;10.93;7.85;;;;;;;12.63;75.64;100656.19;5067581;28;20368;-74
2022/10/16 02:07:16;;;;;;;15.80;9.00;;;;;;;12.39;75.50;100642.66;5086938;28;20025;-71
2022/10/16 02:09:42;;;;;;;13.07;7.75;;;;;;;12.41;75.71;100652.16;5071780;28;20049;-73
2022/10/16 02:12:18;;;;;;;13.57;7.70;;;;;;;12.17;76.95;100654.56;5064967;28;20116;-71
2022/10/16 02:14:44;;;;;;;17.23;8.10;;;;;;;12.22;75.64;100644.31;5069059;28;20090;-72
2022/10/16 02:17:15;;;;;;;13.32;7.70;;;;;;;11.76;76.44;100629.34;5066384;28;20031;-73
2022/10/16 02:19:42;;;;;;;12.80;7.65;;;;;;;11.92;76.00;100648.16;5068449;28;20316;-71
2022/10/16 02:22:12;;;;;;;12.90;6.72;;;;;;;11.85;76.32;100663.00;5065214;28;20028;-71
2022/10/16 02:24:58;;;;;;;14.43;7.10;;;;;;;11.87;76.59;100660.19;5068220;28;20045;-73
2022/10/16 02:27:40;;;;;;;14.07;6.38;;;;;;;11.83;76.59;100647.22;5065676;28;20028;-73
2022/10/16 02:30:27;;;;;;;13.60;6.90;;;;;;;12.00;76.23;100661.50;5067608;28;20052;-73
2022/10/16 02:32:53;;;;;;;12.43;7.70;;;;;;;11.92;75.23;100652.63;5069003;28;20029;-71
2022/10/16 02:35:21;;;;;;;16.08;7.75;;;;;;;11.99;75.89;100659.84;5066540;28;20074;-71
2022/10/16 02:38:24;;;;;;;12.65;7.78;;;;;;;11.96;76.43;100664.63;5073258;28;20203;-73
2022/10/16 02:40:49;;;;;;;10.65;7.72;;;;;;;11.88;76.19;100665.34;5068680;28;20029;-71
2022/10/16 02:43:16;;;;;;;11.25;6.97;;;;;;;11.93;76.11;100665.75;5065699;28;20221;-73
2022/10/16 02:45:42;;;;;;;13.57;7.50;;;;;;;11.73;77.41;100669.44;5068015;28;20033;-73
2022/10/16 02:48:07;;;;;;;19.13;7.25;;;;;;;11.73;77.43;100672.09;5069345;28;20106;-71
2022/10/16 02:50:32;;;;;;;14.02;7.53;;;;;;;11.93;76.13;100676.38;5065640;28;20036;-72
2022/10/16 02:52:58;;;;;;;15.60;7.72;;;;;;;11.76;77.36;100685.06;5067705;28;20240;-73
2022/10/16 02:55:23;;;;;;;14.00;8.35;;;;;;;11.71;78.28;100687.34;5066092;28;20217;-73
2022/10/16 02:57:49;;;;;;;12.55;7.40;;;;;;;11.69;77.06;100684.81;5068699;28;20366;-73
2022/10/16 03:00:16;;;;;;;24.55;8.13;;;;;;;11.65;77.45;100694.06;5066870;28;20090;-72
2022/10/16 03:02:42;;;;;;;13.77;7.97;;;;;;;11.62;77.73;100697.00;5069194;28;20280;-71
2022/10/16 03:05:09;;;;;;;16.67;8.45;;;;;;;11.56;77.33;100702.91;5066578;28;20048;-73
2022/10/16 03:07:34;;;;;;;19.83;8.75;;;;;;;11.54;77.23;100694.25;5069173;28;20032;-73
2022/10/16 03:10:00;;;;;;;14.63;7.47;;;;;;;11.57;76.90;100698.41;5065748;28;20410;-71
2022/10/16 03:12:27;;;;;;;18.75;8.10;;;;;;;11.47;76.77;100659.50;5065373;28;20033;-71
2022/10/16 03:14:52;;;;;;;15.30;8.10;;;;;;;11.48;77.44;100692.16;5070290;28;20109;-71
2022/10/16 03:17:18;;;;;;;15.73;7.82;;;;;;;11.44;77.63;100693.41;5065228;28;20230;-73
2022/10/16 03:19:43;;;;;;;11.52;7.38;;;;;;;11.44;77.64;100699.59;5069968;28;20040;-73
2022/10/16 03:22:09;;;;;;;11.43;7.68;;;;;;;11.26;78.00;100693.31;5064806;28;20044;-71
2022/10/16 03:25:11;;;;;;;13.65;6.82;;;;;;;11.49;77.38;100717.72;5070599;28;20322;-73
2022/10/16 03:27:37;;;;;;;18.05;7.63;;;;;;;11.35;77.66;100716.31;5069076;28;20051;-72
2022/10/16 03:30:41;;;;;;;12.13;6.75;;;;;;;11.50;77.11;100714.91;5064947;28;20214;-73
2022/10/16 03:33:27;;;;;;;14.75;7.15;;;;;;;11.49;76.14;100713.25;5070747;28;20062;-71
2022/10/16 03:35:54;;;;;;;11.88;7.18;;;;;;;11.35;76.70;100716.31;5073814;28;20344;-68
2022/10/16 03:38:20;;;;;;;10.20;7.30;;;;;;;11.11;77.93;100692.94;5073470;28;20033;-71
2022/10/16 03:40:45;;;;;;;10.55;6.75;;;;;;;11.15;77.84;100718.19;5063964;28;20611;-71
2022/10/16 03:43:11;;;;;;;11.07;6.32;;;;;;;10.98;77.82;100718.91;5066653;28;20028;-68
2022/10/16 03:45:36;;;;;;;12.65;6.88;;;;;;;11.03;78.04;100710.53;5067925;28;20147;-71
2022/10/16 03:48:03;;;;;;;10.88;6.70;;;;;;;11.13;77.80;100722.78;5064439;28;20091;-68
2022/10/16 03:50:28;;;;;;;13.30;6.40;;;;;;;11.17;77.07;100726.00;5065346;28;20052;-69
2022/10/16 03:52:54;;;;;;;13.25;7.35;;;;;;;11.23;76.94;100721.94;5065597;28;20029;-70
2022/10/16 03:55:21;;;;;;;12.95;7.20;;;;;;;11.34;77.05;100737.69;5063916;28;20226;-71
2022/10/16 03:57:47;;;;;;;14.23;7.07;;;;;;;11.11;77.35;100730.03;5067430;28;20081;-69
2022/10/16 04:00:12;;;;;;;9.95;6.63;;;;;;;11.17;77.32;100733.94;5062389;28;20092;-71
2022/10/16 04:02:38;;;;;;;12.80;6.38;;;;;;;11.16;76.66;100732.28;5070257;28;20052;-71
2022/10/16 04:05:04;;;;;;;14.20;7.13;;;;;;;11.01;77.79;100731.03;5068584;28;20080;-69
2022/10/16 04:07:30;;;;;;;9.93;6.85;;;;;;;11.13;77.05;100737.84;5067394;28;20031;-71
2022/10/16 04:09:56;;;;;;;10.40;6.05;;;;;;;11.16;77.63;100734.91;5063486;28;20037;-71
2022/10/16 04:12:22;;;;;;;13.35;6.25;;;;;;;11.20;77.20;100723.88;5065698;28;20088;-71
2022/10/16 04:14:48;;;;;;;10.95;6.38;;;;;;;11.26;76.67;100737.56;5066730;28;20277;-68
2022/10/16 04:17:13;;;;;;;9.73;6.30;;;;;;;11.15;77.19;100718.19;5064476;28;20051;-69
2022/10/16 04:19:39;;;;;;;10.85;6.53;;;;;;;11.23;77.66;100729.88;5066584;28;20037;-71
2022/10/16 04:22:04;;;;;;;10.73;6.10;;;;;;;11.36;76.89;100725.13;5065016;28;20035;-69
2022/10/16 04:24:30;;;;;;;12.00;6.15;;;;;;;11.27;76.27;100726.81;5066616;28;20025;-71
2022/10/16 04:26:55;;;;;;;10.98;6.82;;;;;;;11.14;77.36;100740.38;5066188;28;20020;-71
2022/10/16 04:29:21;;;;;;;14.18;6.85;;;;;;;11.22;76.97;100737.00;5066346;28;20047;-71
2022/10/16 04:31:47;;;;;;;10.50;6.28;;;;;;;11.31;76.84;100743.25;5066343;28;20092;-68
2022/10/16 04:34:12;;;;;;;13.00;6.63;;;;;;;11.31;77.19;100743.25;5066212;28;20032;-68
2022/10/16 04:36:38;;;;;;;13.05;6.50;;;;;;;11.30;76.34;100738.94;5063729;28;20318;-71
2022/10/16 04:39:03;;;;;;;13.68;6.32;;;;;;;11.30;76.29;100738.94;5064904;28;20033;-71
2022/10/16 04:41:29;;;;;;;17.35;6.93;;;;;;;11.26;77.06;100745.50;5070234;28;20066;-69
2022/10/16 04:43:54;;;;;;;12.95;6.40;;;;;;;11.20;77.01;100746.91;5071329;28;20214;-71
2022/10/16 04:46:20;;;;;;;14.65;5.97;;;;;;;11.27;77.31;100750.66;5068080;28;20310;-74
2022/10/16 04:48:46;;;;;;;10.85;7.03;;;;;;;11.34;76.59;100749.13;5082248;28;20373;-73
2022/10/16 04:51:12;;;;;;;11.35;6.70;;;;;;;11.30;76.31;100741.59;5081605;28;20092;-71
2022/10/16 04:53:37;;;;;;;9.88;6.68;;;;;;;11.35;76.44;100745.50;5082262;28;20024;-72
2022/10/16 04:56:03;;;;;;;13.55;6.72;;;;;;;11.26;76.97;100751.66;5081889;28;20024;-73
2022/10/16 04:58:29;;;;;;;13.00;7.53;;;;;;;11.31;76.34;100741.44;5081353;28;20040;-71
2022/10/16 05:00:54;;;;;;;10.73;7.03;;;;;;;11.18;77.31;100755.00;5081632;28;20319;-71
2022/10/16 05:03:20;;;;;;;16.73;6.78;;;;;;;11.24;77.40;100744.81;5080801;28;20016;-71
2022/10/16 05:05:46;;;;;;;14.50;6.40;;;;;;;11.42;76.54;100762.50;5081699;28;20024;-73
2022/10/16 05:08:13;;;;;;;12.70;7.15;;;;;;;11.42;76.27;100751.91;5082088;28;20104;-73
2022/10/16 05:10:44;;;;;;;13.48;6.80;;;;;;;11.44;76.27;100760.56;5080307;28;20047;-73
2022/10/16 05:13:10;;;;;;;15.68;7.05;;;;;;;11.23;77.37;100759.88;5081875;28;20100;-73
2022/10/16 05:15:35;;;;;;;13.25;8.13;;;;;;;11.09;78.06;100755.84;5080781;28;20021;-71
2022/10/16 05:18:02;;;;;;;15.35;6.50;;;;;;;11.17;78.06;100755.97;5081898;28;20040;-71
2022/10/16 05:20:27;;;;;;;14.18;7.25;;;;;;;11.14;77.49;100764.22;5081521;28;20040;-71
2022/10/16 05:22:53;;;;;;;10.63;6.47;;;;;;;11.22;77.24;100767.97;5085845;28;20028;-74
2022/10/16 05:25:19;;;;;;;11.52;6.78;;;;;;;11.28;77.71;100778.03;5085498;28;20043;-71
2022/10/16 05:27:48;;;;;;;7.82;5.90;;;;;;;11.26;77.31;100764.06;5085661;28;20214;-71
2022/10/16 05:30:14;;;;;;;13.88;7.53;;;;;;;11.35;77.11;100776.47;5085437;28;20041;-74
2022/10/16 05:32:40;;;;;;;13.07;7.40;;;;;;;11.17;77.79;100779.84;5085739;28;20032;-73
2022/10/16 05:35:05;;;;;;;13.90;7.63;;;;;;;11.29;77.25;100785.84;5085535;28;20028;-73
2022/10/16 05:37:31;;;;;;;13.15;8.05;;;;;;;11.16;78.18;100794.06;5083980;28;20066;-71
2022/10/16 05:39:57;;;;;;;15.02;8.45;;;;;;;11.23;78.12;100797.00;5082365;28;20041;-71
2022/10/16 05:42:22;;;;;;;18.40;8.30;;;;;;;11.00;78.43;100788.50;5085558;28;20027;-71
2022/10/16 05:44:48;;;;;;;19.15;8.93;;;;;;;11.23;78.13;100799.66;5085193;28;20049;-70
2022/10/16 05:47:14;;;;;;;17.10;9.63;;;;;;;11.22;78.70;100802.44;5084337;28;20020;-69
2022/10/16 05:49:39;;;;;;;18.45;10.48;;;;;;;11.25;78.97;100795.03;5084997;28;20047;-68
2022/10/16 05:52:05;;;;;;;20.92;10.93;;;;;;;11.65;78.00;100821.41;5084932;28;20032;-73
2022/10/16 05:54:31;;;;;;;20.90;11.77;;;;;;;12.06;77.02;100828.16;5085095;28;20032;-71
2022/10/16 05:56:56;;;;;;;29.20;14.75;;;;;;;12.30;75.70;100818.84;5085235;28;20054;-71
2022/10/16 05:59:22;;;;;;;26.42;15.15;;;;;;;12.42;74.68;100823.81;5084020;28;20064;-71
2022/10/16 06:01:47;;;;;;;24.02;14.18;;;;;;;12.58;74.50;100825.03;5085061;28;20024;-73
2022/10/16 06:04:13;;;;;;;23.35;12.90;;;;;;;12.51;74.57;100826.59;5076640;28;20044;-73
2022/10/16 06:06:38;;;;;;;22.90;11.38;;;;;;;12.73;73.83;100828.84;5084681;28;20056;-71
2022/10/16 06:09:04;;;;;;;21.88;9.75;;;;;;;12.95;73.05;100830.22;5083616;28;20111;-73
2022/10/16 06:11:32;;;;;;;14.98;7.97;;;;;;;12.88;73.74;100834.47;5084749;28;20040;-71
2022/10/16 06:14:01;;;;;;;13.38;6.55;;;;;;;13.01;73.37;100825.16;5084508;28;20032;-71
2022/10/16 06:16:42;;;;;;;9.73;6.75;;;;;;;13.09;72.74;100824.38;5084872;28;20024;-71
2022/10/16 06:19:09;;;;;;;10.68;6.28;;;;;;;13.27;73.26;100835.88;5075763;28;20104;-74
2022/10/16 06:21:34;;;;;;;9.77;6.85;;;;;;;13.50;72.04;100827.44;5084679;28;20031;-74
2022/10/16 06:24:00;;;;;;;8.65;6.28;;;;;;;13.83;71.45;100839.16;5083329;28;20032;-74
2022/10/16 06:26:28;;;;;;;10.63;6.13;;;;;;;13.83;71.62;100834.69;5084303;28;20100;-72
2022/10/16 06:28:55;;;;;;;9.63;6.05;;;;;;;14.01;71.50;100843.44;5083781;28;20043;-72
2022/10/16 06:31:21;;;;;;;12.88;6.97;;;;;;;14.13;70.91;100844.00;5084387;28;20024;-74
2022/10/16 06:33:50;;;;;;;10.27;7.30;;;;;;;14.38;70.18;100845.81;5084317;28;20033;-73
2022/10/16 06:36:17;;;;;;;16.85;11.02;;;;;;;14.43;70.49;100852.50;5084384;28;20478;-71
2022/10/16 06:38:43;;;;;;;12.90;7.65;;;;;;;14.50;69.99;100846.38;5084470;28;20328;-72
2022/10/16 06:41:15;;;;;;;14.27;8.43;;;;;;;14.70;69.81;100846.97;5083828;28;20028;-71
2022/10/16 06:43:41;;;;;;;21.27;10.65;;;;;;;14.83;69.32;100854.53;5075828;28;20043;-69
2022/10/16 06:49:11;;;;;;;11.27;5.82;;;;;;;14.74;69.84;100853.66;5080336;28;20044;-69
2022/10/16 06:51:40;;;;;;;14.50;6.65;;;;;;;14.65;69.25;100844.81;5081257;28;20024;-69
2022/10/16 06:54:06;;;;;;;14.32;6.40;;;;;;;14.74;69.23;100858.16;5074167;28;20048;-69
2022/10/16 06:56:32;;;;;;;12.23;6.38;;;;;;;14.72;68.98;100831.66;5080760;28;20036;-69
2022/10/16 06:58:58;;;;;;;13.68;6.82;;;;;;;14.96;68.89;100865.56;5080935;28;20661;-68
2022/10/16 07:02:09;;;;;;;14.13;8.60;;;;;;;15.18;68.56;100864.09;5080729;28;20036;-71
2022/10/16 07:04:36;;;;;;;12.90;7.00;;;;;;;15.48;67.81;100859.94;5079582;28;20056;-69
2022/10/16 07:07:01;;;;;;;17.45;11.05;;;;;;;15.58;67.06;100864.16;5068359;28;20050;-69
2022/10/16 07:09:27;;;;;;;12.75;7.28;;;;;;;15.76;67.11;100869.34;5064475;28;20044;-72
2022/10/16 07:11:53;;;;;;;18.05;7.72;;;;;;;16.04;66.27;100875.16;5081507;28;20039;-69
2022/10/16 07:14:33;;;;;;;16.13;7.70;;;;;;;16.13;65.81;100866.09;5081491;28;20048;-69
2022/10/16 07:16:59;;;;;;;14.70;7.47;;;;;;;16.28;65.67;100864.41;5075946;28;20032;-70
2022/10/16 07:19:25;;;;;;;10.18;7.10;;;;;;;16.39;65.40;100889.09;5065797;28;20090;-71
2022/10/16 07:21:50;;;;;;;14.80;7.43;;;;;;;16.41;65.40;100871.88;5083666;28;20040;-72
2022/10/16 07:24:16;;;;;;;12.70;7.35;;;;;;;16.60;65.41;100886.66;5083517;28;20028;-72
2022/10/16 07:26:44;;;;;;;19.17;7.30;;;;;;;16.53;65.65;100883.03;5083442;28;20033;-69
2022/10/16 07:29:15;;;;;;;19.33;8.35;;;;;;;16.61;65.56;100873.13;5082808;28;21711;-69
2022/10/16 07:31:42;;;;;;;15.85;8.82;;;;;;;16.47;66.26;100873.03;5083466;28;20226;-72
2022/10/16 07:34:08;;;;;;;14.10;7.55;;;;;;;16.52;65.72;100868.00;5083108;28;20066;-72
2022/10/16 07:36:34;;;;;;;13.32;6.88;;;;;;;16.59;65.51;100860.94;5083443;28;20100;-69
2022/10/16 07:38:59;;;;;;;12.38;7.55;;;;;;;16.69;65.37;100871.50;5081956;28;20028;-70
2022/10/16 07:41:25;;;;;;;15.27;7.38;;;;;;;16.71;64.80;100867.63;5083157;28;20043;-72
2022/10/16 07:43:52;;;;;;;14.23;7.18;;;;;;;16.65;64.75;100875.50;5082340;28;20338;-69
2022/10/16 07:46:19;;;;;;;13.80;7.45;;;;;;;16.52;64.38;100851.94;5082951;28;20028;-72
2022/10/16 07:48:46;;;;;;;12.95;7.97;;;;;;;16.88;63.97;100873.72;5082863;28;20115;-69
2022/10/16 07:51:14;;;;;;;17.25;7.47;;;;;;;16.75;63.75;100871.63;5082810;28;20222;-70
2022/10/16 07:53:40;;;;;;;12.20;7.57;;;;;;;16.77;64.25;100869.59;5082873;28;20035;-72
2022/10/16 07:56:07;;;;;;;11.90;8.10;;;;;;;16.96;64.48;100872.84;5082360;28;20034;-70
2022/10/16 07:58:36;;;;;;;13.23;7.80;;;;;;;17.12;63.30;100873.59;5074626;28;20087;-71
2022/10/16 08:01:07;;;;;;;14.45;7.43;;;;;;;17.35;62.68;100862.88;5074218;28;20352;-72
2022/10/16 08:03:33;;;;;;;14.55;7.82;;;;;;;17.32;62.56;100862.41;5074586;28;20032;-69
2022/10/16 08:05:59;;;;;;;20.85;14.85;;;;;;;17.16;61.99;100868.72;5074303;28;20349;-69
2022/10/16 08:08:25;;;;;;;13.15;10.68;;;;;;;17.38;62.24;100862.53;5073683;28;20074;-72
2022/10/16 08:10:51;;;;;;;16.77;7.95;;;;;;;17.41;61.41;100851.47;5074471;28;20052;-70
2022/10/16 08:13:16;;;;;;;13.98;7.75;;;;;;;17.60;61.56;100849.31;5079879;28;20052;-72
2022/10/16 08:15:45;;;;;;;14.65;7.85;;;;;;;17.85;60.88;100857.00;5075311;28;20032;-74
2022/10/16 08:18:13;;;;;;;13.27;6.75;;;;;;;18.03;59.46;100866.53;5079298;28;20344;-73
2022/10/16 08:20:39;;;;;;;14.82;7.68;;;;;;;17.88;60.36;100877.22;5077394;28;20259;-71
2022/10/16 08:23:05;;;;;;;15.68;7.40;;;;;;;17.89;60.78;100862.00;5078062;28;20285;-72
2022/10/16 08:25:31;;;;;;;13.50;6.82;;;;;;;18.17;59.25;100865.72;5078355;28;20032;-71
2022/10/16 08:27:57;;;;;;;12.73;7.25;;;;;;;17.80;59.40;100858.56;5078529;28;20031;-74
2022/10/16 08:30:23;;;;;;;14.73;8.10;;;;;;;17.93;59.97;100856.09;5078238;28;20199;-71
2022/10/16 08:33:17;;;;;;;11.35;6.88;;;;;;;17.89;58.57;100853.94;5078204;28;20029;-72
2022/10/16 08:35:42;;;;;;;24.40;13.70;;;;;;;17.85;58.79;100856.16;5077205;28;20040;-74
2022/10/16 08:38:09;;;;;;;12.32;6.97;;;;;;;17.60;59.55;100870.72;5077843;28;20270;-73
2022/10/16 08:40:37;;;;;;;9.48;5.78;;;;;;;17.92;58.67;100865.13;5078980;28;20052;-74
2022/10/16 08:43:36;;;;;;;19.35;11.57;;;;;;;18.30;58.01;100852.50;5075702;28;20050;-71
2022/10/16 08:46:43;;;;;;;10.23;6.20;;;;;;;18.56;57.04;100859.22;5068718;28;20119;-71
2022/10/16 08:49:13;;;;;;;9.82;5.60;;;;;;;18.53;55.82;100836.28;5077857;28;20042;-71
2022/10/16 08:51:39;;;;;;;10.27;6.50;;;;;;;18.88;54.75;100860.72;5078082;28;20055;-74
2022/10/16 08:54:13;;;;;;;12.95;7.35;;;;;;;18.61;57.47;100856.81;5077870;28;20036;-73
2022/10/16 08:56:38;;;;;;;11.30;6.97;;;;;;;18.49;57.20;100859.97;5078013;28;20052;-72
2022/10/16 08:59:09;;;;;;;15.60;6.28;;;;;;;18.78;55.99;100858.31;5077777;28;20040;-74
2022/10/16 09:01:41;;;;;;;11.82;6.05;;;;;;;18.89;54.98;100859.69;5078450;28;20348;-74
2022/10/16 09:04:28;;;;;;;12.13;5.75;;;;;;;18.96;54.28;100849.84;5077686;28;20029;-74
2022/10/16 09:07:17;;;;;;;10.38;6.43;;;;;;;18.69;54.04;100846.00;5077740;28;20348;-74
2022/10/16 09:09:49;;;;;;;57.88;34.28;;;;;;;18.81;53.08;100849.91;5076662;28;20032;-73
2022/10/16 09:12:24;;;;;;;13.32;6.68;;;;;;;18.79;53.20;100836.66;5077747;28;20039;-71
2022/10/16 09:15:21;;;;;;;11.05;5.00;;;;;;;18.94;52.56;100842.00;5076358;28;20024;-74
2022/10/16 09:17:55;;;;;;;10.02;5.40;;;;;;;19.01;52.56;100855.50;5078491;28;20333;-74
2022/10/16 09:20:34;;;;;;;11.10;5.80;;;;;;;18.95;52.97;100850.88;5077440;28;20021;-74
2022/10/16 09:23:13;;;;;;;7.22;4.28;;;;;;;19.03;50.80;100850.75;5078215;28;20077;-71
2022/10/16 09:25:41;;;;;;;12.45;5.20;;;;;;;19.06;50.82;100851.22;5078008;28;20233;-72
2022/10/16 09:28:08;;;;;;;7.72;4.85;;;;;;;19.03;49.35;100837.34;5076622;28;20040;-71
2022/10/16 09:30:33;;;;;;;13.90;4.93;;;;;;;18.82;51.52;100830.09;5077499;28;20032;-74
2022/10/16 09:32:59;;;;;;;12.27;5.10;;;;;;;18.95;51.71;100843.66;5077851;28;20099;-74
2022/10/16 09:38:30;;;;;;;10.68;4.45;;;;;;;18.82;48.24;100840.81;5065972;28;20036;-72
2022/10/16 09:41:01;;;;;;;11.45;5.18;;;;;;;19.04;46.61;100837.16;5077625;28;20017;-74
2022/10/16 09:43:30;;;;;;;8.95;4.85;;;;;;;19.03;46.94;100837.34;5071769;28;20097;-71
2022/10/16 09:46:22;;;;;;;14.68;6.00;;;;;;;19.07;47.79;100831.41;5077588;28;20037;-73
2022/10/16 09:48:50;;;;;;;14.90;5.93;;;;;;;18.76;47.38;100829.00;5070752;28;20079;-74
2022/10/16 09:51:24;;;;;;;15.75;8.73;;;;;;;19.04;46.80;100820.22;5076253;28;20060;-72
2022/10/16 09:54:02;;;;;;;15.95;9.23;;;;;;;18.85;47.27;100827.03;5077746;28;20033;-73
2022/10/16 09:56:33;;;;;;;7.00;4.22;;;;;;;18.81;44.92;100820.38;5077533;28;20021;-71
2022/10/16 09:59:10;;;;;;;8.23;4.13;;;;;;;18.77;45.22;100811.88;5077239;28;20032;-72
2022/10/16 10:01:38;;;;;;;16.60;10.25;;;;;;;18.38;47.25;100804.13;5077385;28;20113;-74
2022/10/16 10:04:05;;;;;;;11.10;8.07;;;;;;;18.46;47.37;100817.44;5075361;28;20337;-71
2022/10/16 10:06:39;;;;;;;13.65;5.28;;;;;;;18.75;46.60;100813.09;5080777;28;20025;-74
2022/10/16 10:09:16;;;;;;;9.27;4.85;;;;;;;18.92;45.93;100819.06;5084082;28;20040;-74
2022/10/16 10:11:55;;;;;;;11.23;4.80;;;;;;;18.73;45.97;100810.59;5080210;28;20261;-74
2022/10/16 10:14:42;;;;;;;15.23;8.07;;;;;;;18.44;47.31;100799.88;5080826;28;20036;-73
2022/10/16 10:17:15;;;;;;;18.80;8.25;;;;;;;18.58;47.85;100807.06;5079493;28;20033;-74
2022/10/16 10:20:15;;;;;;;7.93;4.60;;;;;;;18.52;48.50;100797.91;5081663;28;20214;-74
2022/10/16 10:22:45;;;;;;;13.00;7.63;;;;;;;18.60;47.58;100801.50;5073878;28;20039;-74
2022/10/16 10:25:10;;;;;;;16.25;7.25;;;;;;;18.68;47.86;100804.09;5077974;28;20264;-74
2022/10/16 10:27:57;;;;;;;8.52;4.93;;;;;;;18.75;46.70;100802.34;5079450;28;20040;-74
2022/10/16 10:30:27;;;;;;;9.48;4.65;;;;;;;18.94;45.67;100801.75;5079621;28;20032;-71
2022/10/16 10:33:21;;;;;;;9.10;4.60;;;;;;;18.77;44.63;100776.16;5080979;28;20043;-71
2022/10/16 10:35:50;;;;;;;6.95;4.60;;;;;;;18.86;45.32;100791.13;5084104;28;20090;-74
2022/10/16 10:38:15;;;;;;;6.85;4.20;;;;;;;18.74;45.72;100790.78;5083941;28;20039;-74
2022/10/16 10:40:52;;;;;;;10.55;4.60;;;;;;;18.65;47.58;100785.69;5083805;28;20033;-71
2022/10/16 10:43:46;;;;;;;6.43;4.45;;;;;;;18.68;46.75;100762.00;5083440;28;20031;-71
2022/10/16 10:46:37;;;;;;;6.20;4.47;;;;;;;18.72;46.61;100760.59;5080970;28;20098;-72
2022/10/16 10:49:25;;;;;;;13.38;4.70;;;;;;;18.76;47.07;100779.88;5060909;28;21102;-71
2022/10/16 10:52:28;;;;;;;9.70;4.82;;;;;;;19.02;45.14;100777.47;5083567;28;20048;-71
2022/10/16 10:55:26;;;;;;;11.18;6.30;;;;;;;19.06;44.85;100765.31;5083008;28;20275;-74
2022/10/16 10:58:23;;;;;;;8.88;4.43;;;;;;;18.89;44.97;100763.06;5081802;28;20060;-74
2022/10/16 11:01:08;;;;;;;7.40;4.68;;;;;;;18.76;45.41;100772.66;5081727;28;20024;-72
2022/10/16 11:03:36;;;;;;;9.23;4.68;;;;;;;18.97;45.63;100766.47;5081768;28;20644;-72
2022/10/16 11:06:10;;;;;;;9.55;4.70;;;;;;;18.96;46.04;100756.75;5082762;28;20039;-71
2022/10/16 11:08:40;;;;;;;10.80;4.45;;;;;;;19.00;45.62;100760.72;5082896;28;20029;-72
2022/10/16 11:11:16;;;;;;;15.77;8.35;;;;;;;18.97;45.69;100754.91;5082526;28;20048;-74
2022/10/16 11:13:59;;;;;;;34.30;22.27;;;;;;;18.90;44.55;100765.56;5083016;28;20055;-74
2022/10/16 11:16:31;;;;;;;9.60;4.32;;;;;;;18.87;44.54;100749.84;5082905;28;20218;-72
2022/10/16 11:19:00;;;;;;;9.95;4.28;;;;;;;18.93;44.09;100761.66;5082758;28;20100;-72
2022/10/16 11:21:28;;;;;;;10.55;4.53;;;;;;;18.80;45.17;100739.06;5081759;28;20036;-72
2022/10/16 11:24:00;;;;;;;10.63;6.10;;;;;;;18.79;45.79;100750.81;5082610;28;20032;-72
2022/10/16 11:26:34;;;;;;;20.85;11.55;;;;;;;18.47;46.82;100733.28;5082910;28;20036;-74
2022/10/16 11:29:03;;;;;;;7.53;5.28;;;;;;;18.61;47.00;100747.69;5080942;28;20103;-75
2022/10/16 11:31:43;;;;;;;9.10;5.90;;;;;;;18.32;47.27;100708.34;5082400;28;20102;-71
2022/10/16 11:34:21;;;;;;;9.25;5.28;;;;;;;18.76;46.17;100736.94;5081204;28;20081;-74
2022/10/16 11:36:56;;;;;;;34.80;21.35;;;;;;;18.65;46.25;100732.06;5082439;28;20041;-71
2022/10/16 11:39:27;;;;;;;10.40;4.65;;;;;;;18.59;47.39;100738.97;5082283;28;20052;-74